Juan de Fuca Strait - central strait: Past 24 Hour Conditions

 

Qualicum Beach Airport

10:00 AM PDT 24 April 2014
This table is a summary of hourly weather conditions for the past 24 hours.
Date / Time
(PDT)
Wind(knots) Conditions Visibility(km) Pressure(kPa) Air tempC) Relative humidity(%) Dew pointC)
24 April 2014
10:00 SSE 8 N/A N/A 100.2 11 69 6
9:00 E 5 N/A N/A 100.1 10 89 8
8:00 ESE 6 N/A N/A 100.1 9 90 8
7:00 SSE 7 gust 15 N/A N/A 100.0 8 92 7
6:00 SE 13 gust 19 N/A N/A 99.9 8 92 6
5:00 SE 15 gust 20 N/A N/A 99.9 7 92 6
4:00 SE 13 gust 18 N/A N/A 99.9 7 92 6
3:00 SE 13 gust 22 N/A N/A 99.9 8 91 6
2:00 SE 12 gust 21 N/A N/A 100.0 8 91 6
1:00 SE 17 N/A N/A 100.0 8 91 6
0:00 SE 11 gust 20 N/A N/A 100.1 8 86 6
23 April 2014
23:00 SE 15 N/A N/A 100.3 8 81 5
22:00 SE 8 N/A N/A 100.4 8 80 5
21:00 SE 7 gust 25 N/A N/A 100.5 9 71 4
20:00 ESE 6 N/A N/A 100.5 10 77 6
19:00 ESE 9 N/A N/A 100.6 10 71 5
18:00 ESE 7 gust 15 N/A N/A 100.7 11 70 5
17:00 SE 9 gust 15 N/A N/A 100.7 11 68 5
16:00 E 11 gust 17 N/A N/A 100.8 10 74 6
15:00 ESE 12 N/A N/A 100.9 11 68 6
14:00 ESE 14 N/A N/A 100.9 10 74 6
13:00 ENE 8 N/A N/A 101.0 9 85 7
12:00 E 12 gust 17 N/A N/A 101.0 11 68 5
11:00 SE 9 N/A N/A 101.0 11 60 4
10:00 ENE 4 N/A N/A 101.0 11 69 5
 
Map of Pacific - Georgia Basin marine weather areas Tsawwassen Ferry Terminal Sentry Shoal - 46131 Halibut Bank - 46146 La Perouse Bank - 46206 Discovery Island Esquimalt Harbour Kelp Reefs Malahat Race Rocks Lightstation Saturna Island Sheringham Point University of Victoria Victoria Gonzales Victoria Int'l Airport Ballenas Islands Campbell River Airport Comox Airport Entrance Island Fanny Island Nanaimo Airport Sisters Islets Estevan Point Tofino Airport Grief Point Powell River Airport Sechelt Point Atkinson Sand Heads Lightstation Vancouver Harbour Vancouver Int'l Airport West Vancouver Port Alberni Howe Sound - Pam Rocks Squamish Airport